createdAt,value
2023-05-16T00:01:52.573Z,9.71
2023-05-16T00:04:54.532Z,9.61
2023-05-16T00:07:56.286Z,9.63
2023-05-16T00:11:00.452Z,9.50
2023-05-16T00:14:02.961Z,9.38
2023-05-16T00:17:05.494Z,9.42
2023-05-16T00:20:08.610Z,9.50
2023-05-16T00:23:10.304Z,9.54
2023-05-16T00:26:15.330Z,9.54
2023-05-16T00:29:17.045Z,9.45
2023-05-16T00:32:21.737Z,9.55
2023-05-16T00:35:23.931Z,9.42
2023-05-16T00:38:26.673Z,9.41
2023-05-16T00:41:30.714Z,9.33
2023-05-16T00:44:32.691Z,9.31
2023-05-16T00:47:35.946Z,9.30
2023-05-16T00:50:38.132Z,9.26
2023-05-16T00:53:39.906Z,9.33
2023-05-16T00:56:45.652Z,9.39
2023-05-16T00:59:48.715Z,9.38
2023-05-16T01:02:52.149Z,9.39
2023-05-16T01:05:55.391Z,9.42
2023-05-16T01:08:57.820Z,9.32
2023-05-16T01:12:09.183Z,9.36
2023-05-16T01:15:15.644Z,9.42
2023-05-16T01:18:28.298Z,9.35
2023-05-16T01:21:42.336Z,9.37
2023-05-16T01:24:55.488Z,9.36
2023-05-16T01:27:59.619Z,9.35
2023-05-16T01:31:01.550Z,9.36
2023-05-16T01:34:03.510Z,9.28
2023-05-16T01:37:15.252Z,9.10
2023-05-16T01:40:26.874Z,9.11
2023-05-16T01:43:35.396Z,8.98
2023-05-16T01:46:40.585Z,8.76
2023-05-16T01:49:49.952Z,8.84
2023-05-16T01:52:57.736Z,8.90
2023-05-16T01:56:02.251Z,9.00
2023-05-16T01:59:09.175Z,9.12
2023-05-16T02:02:11.098Z,9.19
2023-05-16T02:05:13.174Z,9.22
2023-05-16T02:08:14.869Z,9.20
2023-05-16T02:11:19.575Z,9.16
2023-05-16T02:14:23.118Z,9.14
2023-05-16T02:17:25.045Z,9.17
2023-05-16T02:20:27.933Z,9.23
2023-05-16T02:23:29.657Z,9.25
2023-05-16T02:26:31.583Z,9.25
2023-05-16T02:29:37.529Z,9.20
2023-05-16T02:32:40.481Z,9.17
2023-05-16T02:35:42.294Z,9.15
2023-05-16T02:38:44.738Z,9.10
2023-05-16T02:41:46.693Z,9.02
2023-05-16T02:44:49.995Z,8.81
2023-05-16T02:47:51.791Z,8.51
2023-05-16T02:50:53.780Z,8.49
2023-05-16T02:53:56.043Z,8.45
2023-05-16T02:56:59.125Z,8.32
2023-05-16T03:00:02.375Z,8.36
2023-05-16T03:03:04.184Z,8.31
2023-05-16T03:06:06.171Z,8.46
2023-05-16T03:09:10.254Z,8.60
2023-05-16T03:12:11.964Z,8.67
2023-05-16T03:15:15.234Z,8.80
2023-05-16T03:18:16.982Z,8.62
2023-05-16T03:21:18.940Z,8.71
2023-05-16T03:24:20.952Z,8.62
2023-05-16T03:27:22.909Z,8.67
2023-05-16T03:30:27.536Z,8.63
2023-05-16T03:33:30.460Z,8.60
2023-05-16T03:36:32.147Z,8.60
2023-05-16T03:39:33.863Z,8.53
2023-05-16T03:42:35.540Z,8.64
2023-05-16T03:45:40.316Z,8.37
2023-05-16T03:48:42.019Z,8.40
2023-05-16T03:51:43.994Z,8.34
2023-05-16T03:54:45.957Z,8.44
2023-05-16T03:57:47.909Z,8.54
2023-05-16T04:00:53.277Z,8.69
2023-05-16T04:03:55.007Z,8.79
2023-05-16T04:06:59.320Z,8.72
2023-05-16T04:10:01.741Z,8.80
2023-05-16T04:13:03.571Z,8.94
2023-05-16T04:16:09.237Z,9.00
2023-05-16T04:19:10.995Z,9.04
2023-05-16T04:22:13.573Z,9.08
2023-05-16T04:25:17.623Z,9.10
2023-05-16T04:28:19.591Z,9.03
2023-05-16T04:31:23.682Z,9.09
2023-05-16T04:34:25.553Z,8.98
2023-05-16T04:37:27.772Z,8.95
2023-05-16T04:40:30.475Z,8.96
2023-05-16T04:43:32.193Z,8.81
2023-05-16T04:46:35.668Z,8.73
2023-05-16T04:49:37.378Z,8.83
2023-05-16T04:52:39.120Z,8.91
2023-05-16T04:55:41.533Z,8.98
2023-05-16T04:58:43.710Z,8.86
2023-05-16T05:01:47.029Z,8.81
2023-05-16T05:04:48.802Z,8.90
2023-05-16T05:07:53.256Z,8.83
2023-05-16T05:10:56.351Z,8.96
2023-05-16T05:14:00.702Z,9.02
2023-05-16T05:17:04.522Z,9.08
2023-05-16T05:20:08.080Z,9.14
2023-05-16T05:23:10.533Z,9.23
2023-05-16T05:26:13.550Z,9.29
2023-05-16T05:29:15.287Z,9.38
2023-05-16T05:32:23.219Z,9.47
2023-05-16T05:35:25.532Z,9.51
2023-05-16T05:38:28.016Z,9.57
2023-05-16T05:41:29.981Z,9.61
2023-05-16T05:44:33.804Z,9.61
2023-05-16T05:47:37.474Z,9.66
2023-05-16T05:50:40.250Z,9.83
2023-05-16T05:53:43.498Z,9.86
2023-05-16T05:56:45.691Z,9.75
2023-05-16T05:59:47.620Z,9.74
2023-05-16T06:02:50.934Z,9.75
2023-05-16T06:05:53.101Z,9.79
2023-05-16T06:08:55.774Z,9.82
2023-05-16T06:11:57.773Z,9.83
2023-05-16T06:15:01.338Z,9.80
2023-05-16T06:18:06.151Z,9.86
2023-05-16T06:21:08.177Z,9.92
2023-05-16T06:24:10.248Z,10.03
2023-05-16T06:27:12.250Z,10.04
2023-05-16T06:30:14.635Z,10.08
2023-05-16T06:33:17.727Z,10.12
2023-05-16T06:36:19.660Z,10.13
2023-05-16T06:39:22.220Z,10.21
2023-05-16T06:42:27.800Z,10.28
2023-05-16T06:45:30.332Z,10.33
2023-05-16T06:48:33.634Z,10.36
2023-05-16T06:51:35.505Z,10.46
2023-05-16T06:54:40.011Z,10.47
2023-05-16T06:57:42.523Z,10.50
2023-05-16T07:00:44.236Z,10.55
2023-05-16T07:03:47.854Z,10.40
2023-05-16T07:06:49.677Z,10.54
2023-05-16T07:09:52.169Z,10.66
2023-05-16T07:12:54.225Z,10.57
2023-05-16T07:15:55.966Z,10.57
2023-05-16T07:19:00.412Z,10.58
2023-05-16T07:22:02.823Z,10.59
2023-05-16T07:25:05.504Z,10.80
2023-05-16T07:28:08.001Z,10.79
2023-05-16T07:31:10.303Z,10.91
2023-05-16T07:34:14.170Z,10.89
2023-05-16T07:37:16.741Z,10.87
2023-05-16T07:40:19.020Z,10.86
2023-05-16T07:43:21.492Z,10.88
2023-05-16T07:46:24.448Z,10.84
2023-05-16T07:49:27.596Z,10.90
2023-05-16T07:52:30.111Z,10.98
2023-05-16T07:55:32.424Z,11.08
2023-05-16T07:58:34.592Z,11.25
2023-05-16T08:01:37.225Z,11.22
2023-05-16T08:04:40.369Z,11.37
2023-05-16T08:07:42.422Z,11.46
2023-05-16T08:10:44.476Z,11.66
2023-05-16T08:13:46.363Z,11.51
2023-05-16T08:16:48.169Z,11.49
2023-05-16T08:19:51.762Z,11.48
2023-05-16T08:22:54.150Z,11.52
2023-05-16T08:25:56.173Z,11.55
2023-05-16T08:28:58.162Z,11.55
2023-05-16T08:32:00.234Z,11.62
2023-05-16T08:35:03.526Z,11.65
2023-05-16T08:38:05.383Z,11.65
2023-05-16T08:41:07.779Z,11.68
2023-05-16T08:44:12.204Z,11.75
2023-05-16T08:47:18.995Z,11.80
2023-05-16T08:50:23.598Z,11.83
2023-05-16T08:53:34.655Z,11.87
2023-05-16T08:56:38.711Z,11.89
2023-05-16T08:59:41.054Z,11.88
2023-05-16T09:02:46.220Z,11.85
2023-05-16T09:05:49.713Z,11.82
2023-05-16T09:08:54.129Z,11.95
2023-05-16T09:11:56.381Z,11.90
2023-05-16T09:14:58.574Z,11.96
2023-05-16T09:18:01.561Z,11.99
2023-05-16T09:21:05.822Z,12.08
2023-05-16T09:24:11.964Z,12.32
2023-05-16T09:27:16.173Z,12.30
2023-05-16T09:30:30.270Z,12.32
2023-05-16T09:33:33.488Z,12.41
2023-05-16T09:36:37.103Z,12.37
2023-05-16T09:39:45.763Z,12.45
2023-05-16T09:42:47.640Z,12.50
2023-05-16T09:45:49.875Z,12.52
2023-05-16T09:48:52.093Z,12.61
2023-05-16T09:51:55.757Z,12.66
2023-05-16T09:54:59.431Z,12.62
2023-05-16T09:58:01.371Z,12.69
2023-05-16T10:01:03.720Z,12.66
2023-05-16T10:04:06.039Z,12.63
2023-05-16T10:07:10.741Z,12.61
2023-05-16T10:10:14.596Z,12.52
2023-05-16T10:13:18.202Z,12.48
2023-05-16T10:16:22.026Z,12.53
2023-05-16T10:19:26.699Z,12.59
2023-05-16T10:22:32.871Z,12.67
2023-05-16T10:25:39.248Z,12.61
2023-05-16T10:28:41.279Z,12.68
2023-05-16T10:31:43.759Z,12.67
2023-05-16T10:34:46.581Z,12.72
2023-05-16T10:37:51.502Z,12.69
2023-05-16T10:40:57.635Z,12.79
2023-05-16T10:44:00.013Z,12.75
2023-05-16T10:47:04.214Z,12.68
2023-05-16T10:50:07.893Z,12.73
2023-05-16T10:53:22.318Z,12.79
2023-05-16T10:56:27.575Z,12.83
2023-05-16T10:59:40.719Z,12.93
2023-05-16T11:02:43.547Z,12.97
2023-05-16T11:05:52.430Z,13.03
2023-05-16T11:09:07.086Z,13.02
2023-05-16T11:12:09.905Z,13.12
2023-05-16T11:15:24.219Z,13.04
2023-05-16T11:18:28.516Z,13.04
2023-05-16T11:22:03.477Z,13.03
2023-05-16T11:25:09.124Z,13.13
2023-05-16T11:28:13.105Z,13.15
2023-05-16T11:31:15.232Z,13.18
2023-05-16T11:34:17.343Z,13.12
2023-05-16T11:37:22.514Z,13.06
2023-05-16T11:40:27.070Z,12.83
2023-05-16T11:43:28.948Z,12.86
2023-05-16T11:46:31.850Z,12.83
2023-05-16T11:49:34.934Z,12.74
2023-05-16T11:52:37.322Z,12.84
2023-05-16T11:55:42.605Z,12.98
2023-05-16T11:58:45.755Z,12.89
2023-05-16T12:01:48.672Z,12.90
2023-05-16T12:04:50.785Z,12.71
2023-05-16T12:07:53.499Z,12.60
2023-05-16T12:10:57.068Z,12.47
2023-05-16T12:13:59.144Z,12.21
2023-05-16T12:17:01.165Z,12.31
2023-05-16T12:20:04.921Z,12.37
2023-05-16T12:23:11.804Z,12.33
2023-05-16T12:26:15.140Z,12.33
2023-05-16T12:29:17.145Z,12.40
2023-05-16T12:32:21.978Z,12.21
2023-05-16T12:35:25.237Z,11.90
2023-05-16T12:38:29.480Z,11.83
2023-05-16T12:41:32.949Z,12.00
2023-05-16T12:44:35.623Z,12.00
2023-05-16T12:47:38.829Z,12.22
2023-05-16T12:50:41.859Z,12.24
2023-05-16T12:53:49.145Z,12.22
2023-05-16T12:56:59.196Z,12.20
2023-05-16T13:00:00.954Z,12.17
2023-05-16T13:03:02.834Z,12.12
2023-05-16T13:06:06.104Z,12.09
2023-05-16T13:09:08.475Z,12.35
2023-05-16T13:12:13.873Z,12.20
2023-05-16T13:15:17.833Z,12.29
2023-05-16T13:18:20.372Z,12.32
2023-05-16T13:21:24.653Z,12.06
2023-05-16T13:24:26.425Z,12.15
2023-05-16T13:27:29.882Z,12.07
2023-05-16T13:30:31.680Z,12.08
2023-05-16T13:33:33.393Z,12.12
2023-05-16T13:36:52.456Z,12.11
2023-05-16T13:39:55.581Z,12.25
2023-05-16T13:43:00.500Z,12.37
2023-05-16T13:46:02.325Z,12.42
2023-05-16T13:49:04.850Z,12.30
2023-05-16T13:52:07.312Z,12.32
2023-05-16T13:55:09.851Z,12.50
2023-05-16T13:58:16.140Z,12.39
2023-05-16T14:01:18.877Z,12.48
2023-05-16T14:04:23.318Z,12.52
2023-05-16T14:07:25.934Z,12.57
2023-05-16T14:10:27.757Z,12.48
2023-05-16T14:13:31.179Z,12.38
2023-05-16T14:16:32.986Z,12.39
2023-05-16T14:19:38.073Z,12.33
2023-05-16T14:22:39.942Z,12.37
2023-05-16T14:25:41.701Z,12.39
2023-05-16T14:28:44.978Z,12.39
2023-05-16T14:31:51.322Z,12.25
2023-05-16T14:34:55.392Z,12.19
2023-05-16T14:37:57.331Z,12.31
2023-05-16T14:40:59.189Z,12.28
2023-05-16T14:44:02.816Z,12.29
2023-05-16T14:47:06.023Z,12.26
2023-05-16T14:50:10.172Z,12.29
2023-05-16T14:53:12.361Z,12.28
2023-05-16T14:56:16.888Z,12.30
2023-05-16T14:59:20.352Z,12.24
2023-05-16T15:02:23.326Z,12.29
2023-05-16T15:05:25.584Z,12.25
2023-05-16T15:08:27.708Z,12.25
2023-05-16T15:11:30.358Z,12.19
2023-05-16T15:14:35.693Z,12.03
2023-05-16T15:17:40.440Z,12.06
2023-05-16T15:20:44.873Z,12.09
2023-05-16T15:23:47.501Z,12.17
2023-05-16T15:26:51.023Z,12.24
2023-05-16T15:29:55.857Z,12.22
2023-05-16T15:32:59.369Z,12.28
2023-05-16T15:36:01.961Z,12.31
2023-05-16T15:39:06.211Z,12.44
2023-05-16T15:42:11.290Z,12.38
2023-05-16T15:45:17.928Z,12.37
2023-05-16T15:48:20.784Z,12.11
2023-05-16T15:51:23.401Z,12.19
2023-05-16T15:54:25.959Z,12.15
2023-05-16T15:57:28.488Z,12.15
2023-05-16T16:00:32.425Z,11.91
2023-05-16T16:03:35.688Z,11.99
2023-05-16T16:06:38.314Z,12.00
2023-05-16T16:09:42.400Z,11.99
2023-05-16T16:12:45.628Z,12.02
2023-05-16T16:15:50.766Z,11.94
2023-05-16T16:18:54.459Z,11.99
2023-05-16T16:21:57.030Z,11.84
2023-05-16T16:24:59.591Z,11.78
2023-05-16T16:28:02.151Z,11.85
2023-05-16T16:31:06.370Z,11.87
2023-05-16T16:34:11.876Z,11.79
2023-05-16T16:37:19.685Z,11.49
2023-05-16T16:40:27.388Z,11.12
2023-05-16T16:43:30.726Z,10.97
2023-05-16T16:46:36.428Z,11.06
2023-05-16T16:49:39.267Z,11.15
2023-05-16T16:52:42.571Z,11.26
2023-05-16T16:55:45.895Z,11.13
2023-05-16T16:58:48.550Z,11.21
2023-05-16T17:01:53.534Z,11.30
2023-05-16T17:04:58.708Z,11.33
2023-05-16T17:08:02.267Z,11.47
2023-05-16T17:11:06.945Z,11.61
2023-05-16T17:14:09.734Z,11.68
2023-05-16T17:17:13.794Z,11.70
2023-05-16T17:20:17.261Z,11.72
2023-05-16T17:23:19.839Z,11.71
2023-05-16T17:26:23.126Z,11.71
2023-05-16T17:29:26.301Z,11.71
2023-05-16T17:32:30.776Z,11.67
2023-05-16T17:35:33.389Z,11.70
2023-05-16T17:38:36.224Z,11.74
2023-05-16T17:41:39.819Z,11.73
2023-05-16T17:44:43.448Z,11.69
2023-05-16T17:47:48.692Z,11.65
2023-05-16T17:50:53.425Z,11.65
2023-05-16T17:53:56.036Z,11.67
2023-05-16T17:57:00.238Z,11.66
2023-05-16T18:00:02.904Z,11.65
2023-05-16T18:03:09.047Z,11.64
2023-05-16T18:06:12.694Z,11.68
2023-05-16T18:09:17.780Z,11.56
2023-05-16T18:12:20.681Z,11.41
2023-05-16T18:15:23.251Z,11.21
2023-05-16T18:18:27.246Z,11.23
2023-05-16T18:21:30.328Z,11.04
2023-05-16T18:24:35.169Z,11.00
2023-05-16T18:27:38.929Z,10.87
2023-05-16T18:30:42.322Z,10.91
2023-05-16T18:33:46.460Z,10.81
2023-05-16T18:36:49.170Z,10.94
2023-05-16T18:39:51.745Z,11.03
2023-05-16T18:42:55.896Z,10.96
2023-05-16T18:45:59.219Z,10.87
2023-05-16T18:49:03.534Z,10.81
2023-05-16T18:52:07.023Z,10.89
2023-05-16T18:55:10.288Z,10.86
2023-05-16T18:58:12.937Z,10.78
2023-05-16T19:01:15.685Z,10.88
2023-05-16T19:04:20.227Z,10.84
2023-05-16T19:07:22.916Z,10.76
2023-05-16T19:10:25.792Z,10.81
2023-05-16T19:13:28.902Z,10.77
2023-05-16T19:16:31.920Z,10.55
2023-05-16T19:19:39.379Z,10.55
2023-05-16T19:22:42.045Z,10.49
2023-05-16T19:25:47.856Z,10.53
2023-05-16T19:28:53.228Z,10.68
2023-05-16T19:31:58.884Z,10.73
2023-05-16T19:35:05.753Z,10.72
2023-05-16T19:38:08.375Z,10.76
2023-05-16T19:41:10.931Z,10.74
2023-05-16T19:44:14.534Z,10.63
2023-05-16T19:47:17.014Z,10.44
2023-05-16T19:50:21.905Z,10.59
2023-05-16T19:53:24.411Z,10.67
2023-05-16T19:56:26.925Z,10.45
2023-05-16T19:59:30.680Z,10.52
2023-05-16T20:02:33.134Z,10.55
2023-05-16T20:05:36.883Z,10.50
2023-05-16T20:08:39.328Z,10.45
2023-05-16T20:11:42.028Z,10.46
2023-05-16T20:14:44.524Z,10.50
2023-05-16T20:17:47.123Z,10.56
2023-05-16T20:20:52.317Z,10.65
2023-05-16T20:23:54.847Z,10.73
2023-05-16T20:26:57.390Z,10.78
2023-05-16T20:30:00.189Z,10.64
2023-05-16T20:33:03.381Z,10.68
2023-05-16T20:36:07.656Z,10.69
2023-05-16T20:39:10.474Z,10.29
2023-05-16T20:42:13.271Z,10.08
2023-05-16T20:45:15.779Z,10.08
2023-05-16T20:48:18.245Z,10.01
2023-05-16T20:51:22.268Z,10.11
2023-05-16T20:54:26.505Z,10.04
2023-05-16T20:57:29.524Z,10.08
2023-05-16T21:00:31.418Z,9.90
2023-05-16T21:03:33.288Z,9.91
2023-05-16T21:06:36.955Z,10.03
2023-05-16T21:09:40.853Z,9.79
2023-05-16T21:12:43.943Z,9.73
2023-05-16T21:15:45.872Z,9.87
2023-05-16T21:18:53.360Z,9.86
2023-05-16T21:21:58.918Z,9.64
2023-05-16T21:25:00.713Z,9.70
2023-05-16T21:28:02.806Z,9.72
2023-05-16T21:31:04.864Z,9.60
2023-05-16T21:34:06.618Z,9.67
2023-05-16T21:37:11.811Z,9.75
2023-05-16T21:40:14.142Z,9.72
2023-05-16T21:43:15.955Z,9.74
2023-05-16T21:46:17.981Z,9.56
2023-05-16T21:49:19.942Z,9.64
2023-05-16T21:52:23.108Z,9.61
2023-05-16T21:55:27.271Z,9.51
2023-05-16T21:58:29.373Z,9.38
2023-05-16T22:01:31.176Z,9.46
2023-05-16T22:04:33.170Z,9.34
2023-05-16T22:07:36.965Z,9.22
2023-05-16T22:10:40.357Z,9.19
2023-05-16T22:13:42.235Z,9.24
2023-05-16T22:16:44.257Z,9.29
2023-05-16T22:19:47.885Z,9.23
2023-05-16T22:22:51.629Z,9.17
2023-05-16T22:25:53.402Z,9.23
2023-05-16T22:28:55.247Z,9.14
2023-05-16T22:31:57.192Z,9.06
2023-05-16T22:34:59.030Z,9.09
2023-05-16T22:38:02.401Z,8.97
2023-05-16T22:41:04.760Z,8.95
2023-05-16T22:44:06.735Z,8.98
2023-05-16T22:47:08.527Z,9.00
2023-05-16T22:50:10.855Z,9.09
2023-05-16T22:53:14.509Z,9.13
2023-05-16T22:56:16.491Z,9.24
2023-05-16T22:59:18.186Z,9.19
2023-05-16T23:02:20.153Z,9.10
2023-05-16T23:05:21.849Z,9.07
2023-05-16T23:08:25.543Z,9.06
2023-05-16T23:11:27.291Z,8.82
2023-05-16T23:14:29.265Z,8.85
2023-05-16T23:17:31.026Z,8.80
2023-05-16T23:20:33.010Z,8.87
2023-05-16T23:23:36.538Z,8.82
2023-05-16T23:26:40.896Z,8.68
2023-05-16T23:29:42.648Z,8.70
2023-05-16T23:32:44.696Z,8.93
2023-05-16T23:35:46.632Z,8.76
2023-05-16T23:38:49.714Z,8.82
2023-05-16T23:41:51.591Z,8.61
2023-05-16T23:44:53.540Z,8.53
2023-05-16T23:47:55.337Z,8.72
2023-05-16T23:50:57.088Z,8.72
2023-05-16T23:54:00.766Z,8.71
2023-05-16T23:57:02.785Z,8.71
